Flinterbirka — PHFQ — position and weather

sailwx.info

Track history (hours):
 
Tides and Currents Weather Stations Pressure Air Temp Water Temp Dewpoint Dewpoint Depression Visibility Wind Speed Wind Dir Waves Ship Positions

Flinterbirka

Last reported at 2015-Jul-30 15:32 UTC. Time now 2015-Jul-30 16:15 UTC.
Position N 51°06' E 003°45'.

Length 81 m; draft 4 m.

Type: Ship. MMSI: 246525000.

Date/timePositionNaut miles runAvg speedWind from/ knotsBaromVisibWave heightAir tempDewpointWater temp
2015-Jul-30 15:32N 51°06' E 003°45'0 0.0
2015-Jul-30 14:32N 51°06' E 003°45'0 0.0
2015-Jul-30 13:31N 51°06' E 003°45'0 0.0
2015-Jul-30 12:31N 51°06' E 003°45'0 0.0
2015-Jul-30 11:31N 51°06' E 003°45'0 0.0
2015-Jul-30 10:30N 51°06' E 003°45'0 0.0
2015-Jul-30 09:33N 51°06' E 003°45'0 0.0
2015-Jul-30 08:32N 51°06' E 003°45'0 0.0
2015-Jul-30 07:32N 51°06' E 003°45'0 0.0
2015-Jul-30 06:22N 51°06' E 003°45'0 0.0
2015-Jul-30 05:31N 51°06' E 003°45'0 0.0
2015-Jul-30 04:31N 51°06' E 003°45'0 0.0
2015-Jul-30 03:33N 51°06' E 003°45'0 0.0
2015-Jul-30 02:33N 51°06' E 003°45'0 0.0
2015-Jul-30 01:32N 51°06' E 003°45'0 0.0
2015-Jul-30 00:32N 51°06' E 003°45'0 0.0
2015-Jul-29 23:25N 51°06' E 003°45'0 0.0
2015-Jul-29 22:25N 51°06' E 003°45'0 0.0
2015-Jul-29 21:31N 51°06' E 003°45'0 0.0
2015-Jul-29 20:33N 51°06' E 003°45'0 0.1
2015-Jul-29 19:33N 51°06' E 003°45'0 0.0
2015-Jul-29 18:32N 51°06' E 003°45'0 0.0
2015-Jul-29 17:32N 51°06' E 003°45'0 0.0
2015-Jul-29 16:31N 51°06' E 003°45'0 0.0
2015-Jul-29 15:31N 51°06' E 003°45'0 0.0
2015-Jul-29 14:34N 51°06' E 003°45'0 0.0
2015-Jul-29 13:30N 51°06' E 003°45'0 0.0
2015-Jul-29 12:27N 51°06' E 003°45'0 0.0
2015-Jul-29 11:29N 51°06' E 003°45'0 0.0
2015-Jul-29 10:32N 51°06' E 003°45'0 0.0
2015-Jul-29 09:29N 51°06' E 003°45'0 0.0
2015-Jul-29 08:31N 51°06' E 003°45'0 0.0
2015-Jul-29 07:34N 51°06' E 003°45'0 0.0
2015-Jul-29 06:27N 51°06' E 003°45'0 0.0
2015-Jul-29 05:33N 51°06' E 003°45'0 0.0
2015-Jul-29 04:32N 51°06' E 003°45'0 0.0
2015-Jul-29 03:32N 51°06' E 003°45'0 0.0
2015-Jul-29 02:31N 51°06' E 003°45'4 4.4
2015-Jul-29 01:33N 51°10' E 003°47'8 8.5
2015-Jul-29 00:33N 51°18' E 003°50'2 2.4
2015-Jul-28 23:33N 51°20' E 003°49'1010.2
2015-Jul-28 22:33N 51°26' E 003°35'10 9.8
2015-Jul-28 21:33N 51°33' E 003°25'32 6.3
2015-Jul-28 16:33N 52°03' E 003°44'8 8.1
2015-Jul-28 15:33N 52°02' E 003°57'1110.6
2015-Jul-28 14:33N 51°56' E 004°12'9 8.9
2015-Jul-28 13:33N 51°54' E 004°26'0 0.1
2015-Jul-28 12:32N 51°54' E 004°26'0 0.0
2015-Jul-28 11:28N 51°54' E 004°26'0 0.0
2015-Jul-28 10:31N 51°54' E 004°26'0 0.0
2015-Jul-28 09:31N 51°54' E 004°26'0 0.0
2015-Jul-28 08:24N 51°54' E 004°26'0 0.0
2015-Jul-28 07:33N 51°54' E 004°26'0 0.0
2015-Jul-28 06:29N 51°54' E 004°26'0 0.0
2015-Jul-28 05:32N 51°54' E 004°26'0 0.0
2015-Jul-28 04:31N 51°54' E 004°26'0 0.0
2015-Jul-28 03:31N 51°54' E 004°26'0 0.0
2015-Jul-28 02:31N 51°54' E 004°26'0 0.0
2015-Jul-28 01:33N 51°54' E 004°26'0 0.0
2015-Jul-28 00:33N 51°54' E 004°26'0 0.0
2015-Jul-27 23:29N 51°54' E 004°26'0 0.0
2015-Jul-27 22:32N 51°54' E 004°26'0 0.0
2015-Jul-27 21:31N 51°54' E 004°26'0 0.0
2015-Jul-27 20:31N 51°54' E 004°26'0 0.0
2015-Jul-27 19:31N 51°54' E 004°26'0 0.0
2015-Jul-27 18:30N 51°54' E 004°26'0 0.0
2015-Jul-27 17:33N 51°54' E 004°26'0 0.0
2015-Jul-27 16:32N 51°54' E 004°26'0 0.0
2015-Jul-27 15:32N 51°54' E 004°26'0 0.0
2015-Jul-27 14:31N 51°54' E 004°26'0 0.0
2015-Jul-27 13:28N 51°54' E 004°26'0 0.0
2015-Jul-27 12:31N 51°54' E 004°26'0 0.0
2015-Jul-27 11:33N 51°54' E 004°26'0 0.0
2015-Jul-27 10:33N 51°54' E 004°26'0 0.0
2015-Jul-27 09:29N 51°54' E 004°26'0 0.0
2015-Jul-27 08:30N 51°54' E 004°26'0 0.0
2015-Jul-27 07:31N 51°54' E 004°26'0 0.0
2015-Jul-27 06:31N 51°54' E 004°26'0 0.0
2015-Jul-27 05:30N 51°54' E 004°26'0 0.0
2015-Jul-27 04:33N 51°54' E 004°26'0 0.0
2015-Jul-27 03:33N 51°54' E 004°26'0 0.0
2015-Jul-27 02:32N 51°54' E 004°26'0 0.0
2015-Jul-27 01:29N 51°54' E 004°26'0 0.0
2015-Jul-27 00:31N 51°54' E 004°26'0 0.0
2015-Jul-26 23:31N 51°54' E 004°26'0 0.0
2015-Jul-26 22:33N 51°54' E 004°26'0 0.0
2015-Jul-26 21:33N 51°54' E 004°26'0 0.0
2015-Jul-26 20:33N 51°54' E 004°26'0 0.0
2015-Jul-26 19:32N 51°54' E 004°26'0 0.0
2015-Jul-26 18:32N 51°54' E 004°26'0 0.0
2015-Jul-26 17:31N 51°54' E 004°26'0 0.0
2015-Jul-26 16:31N 51°54' E 004°26'0 0.0
2015-Jul-26 15:33N 51°54' E 004°26'0 0.0
2015-Jul-26 14:33N 51°54' E 004°26'0 0.0
2015-Jul-26 13:33N 51°54' E 004°26'0 0.0
2015-Jul-26 12:32N 51°54' E 004°26'0 0.1
2015-Jul-26 11:33N 51°54' E 004°26'1 0.9
2015-Jul-26 10:33N 51°53' E 004°27'1 1.1
2015-Jul-26 09:33N 51°54' E 004°26'9 9.0
2015-Jul-26 08:33N 51°56' E 004°12'1110.6
2015-Jul-26 07:34N 51°60' E 003°55'74 8.2
2015-Jul-25 22:33N 51°24' E 002°11'8 8.3
2015-Jul-25 21:33N 51°17' E 002°07'8 8.2
2015-Jul-25 20:33N 51°11' E 001°57'9 8.7
2015-Jul-25 19:33N 51°06' E 001°46'9 9.2
2015-Jul-25 18:33N 50°59' E 001°36'  
2015-Jul-21 08:20N 39°15' W 009°50'810.4
2015-Jul-21 07:33N 39°07' W 009°50'1010.3
2015-Jul-21 06:33N 38°57' W 009°51'1010.4
2015-Jul-21 05:33N 38°46' W 009°51'1010.3
2015-Jul-21 04:33N 38°36' W 009°49'10 9.8
2015-Jul-21 03:33N 38°26' W 009°46'10 9.8
2015-Jul-21 02:33N 38°17' W 009°43'10 9.5
2015-Jul-21 01:33N 38°08' W 009°40'11 9.3
2015-Jul-21 00:22N 37°57' W 009°38'8 9.2
2015-Jul-20 23:31N 37°49' W 009°35'9 9.4
2015-Jul-20 22:33N 37°41' W 009°32'9 9.5
2015-Jul-20 21:33N 37°31' W 009°29'10 9.7
2015-Jul-20 20:33N 37°22' W 009°26'12 9.5
2015-Jul-20 19:19N 37°10' W 009°24'  
Track history (hours):
 
Tides and Currents Weather Stations Pressure Air Temp Water Temp Dewpoint Dewpoint Depression Visibility Wind Speed Wind Dir Waves Ship Positions

Flinterbirka

Last reported at 2015-Jul-30 15:32 UTC. Time now 2015-Jul-30 16:15 UTC.
Position N 51°06' E 003°45'.

Length 81 m; draft 4 m.

Type: Ship. MMSI: 246525000.

Date/timePositionNaut miles runAvg speedWind from/ knotsBaromVisibWave heightAir tempDewpointWater temp
2015-Jul-30 15:32N 51°06' E 003°45'0 0.0
2015-Jul-30 14:32N 51°06' E 003°45'0 0.0
2015-Jul-30 13:31N 51°06' E 003°45'0 0.0
2015-Jul-30 12:31N 51°06' E 003°45'0 0.0
2015-Jul-30 11:31N 51°06' E 003°45'0 0.0
2015-Jul-30 10:30N 51°06' E 003°45'0 0.0
2015-Jul-30 09:33N 51°06' E 003°45'0 0.0
2015-Jul-30 08:32N 51°06' E 003°45'0 0.0
2015-Jul-30 07:32N 51°06' E 003°45'0 0.0
2015-Jul-30 06:22N 51°06' E 003°45'0 0.0
2015-Jul-30 05:31N 51°06' E 003°45'0 0.0
2015-Jul-30 04:31N 51°06' E 003°45'0 0.0
2015-Jul-30 03:33N 51°06' E 003°45'0 0.0
2015-Jul-30 02:33N 51°06' E 003°45'0 0.0
2015-Jul-30 01:32N 51°06' E 003°45'0 0.0
2015-Jul-30 00:32N 51°06' E 003°45'0 0.0
2015-Jul-29 23:25N 51°06' E 003°45'0 0.0
2015-Jul-29 22:25N 51°06' E 003°45'0 0.0
2015-Jul-29 21:31N 51°06' E 003°45'0 0.0
2015-Jul-29 20:33N 51°06' E 003°45'0 0.1
2015-Jul-29 19:33N 51°06' E 003°45'0 0.0
2015-Jul-29 18:32N 51°06' E 003°45'0 0.0
2015-Jul-29 17:32N 51°06' E 003°45'0 0.0
2015-Jul-29 16:31N 51°06' E 003°45'0 0.0
2015-Jul-29 15:31N 51°06' E 003°45'0 0.0
2015-Jul-29 14:34N 51°06' E 003°45'0 0.0
2015-Jul-29 13:30N 51°06' E 003°45'0 0.0
2015-Jul-29 12:27N 51°06' E 003°45'0 0.0
2015-Jul-29 11:29N 51°06' E 003°45'0 0.0
2015-Jul-29 10:32N 51°06' E 003°45'0 0.0
2015-Jul-29 09:29N 51°06' E 003°45'0 0.0
2015-Jul-29 08:31N 51°06' E 003°45'0 0.0
2015-Jul-29 07:34N 51°06' E 003°45'0 0.0
2015-Jul-29 06:27N 51°06' E 003°45'0 0.0
2015-Jul-29 05:33N 51°06' E 003°45'0 0.0
2015-Jul-29 04:32N 51°06' E 003°45'0 0.0
2015-Jul-29 03:32N 51°06' E 003°45'0 0.0
2015-Jul-29 02:31N 51°06' E 003°45'4 4.4
2015-Jul-29 01:33N 51°10' E 003°47'8 8.5
2015-Jul-29 00:33N 51°18' E 003°50'2 2.4
2015-Jul-28 23:33N 51°20' E 003°49'1010.2
2015-Jul-28 22:33N 51°26' E 003°35'10 9.8
2015-Jul-28 21:33N 51°33' E 003°25'32 6.3
2015-Jul-28 16:33N 52°03' E 003°44'8 8.1
2015-Jul-28 15:33N 52°02' E 003°57'1110.6
2015-Jul-28 14:33N 51°56' E 004°12'9 8.9
2015-Jul-28 13:33N 51°54' E 004°26'0 0.1
2015-Jul-28 12:32N 51°54' E 004°26'0 0.0
2015-Jul-28 11:28N 51°54' E 004°26'0 0.0
2015-Jul-28 10:31N 51°54' E 004°26'0 0.0
2015-Jul-28 09:31N 51°54' E 004°26'0 0.0
2015-Jul-28 08:24N 51°54' E 004°26'0 0.0
2015-Jul-28 07:33N 51°54' E 004°26'0 0.0
2015-Jul-28 06:29N 51°54' E 004°26'0 0.0
2015-Jul-28 05:32N 51°54' E 004°26'0 0.0
2015-Jul-28 04:31N 51°54' E 004°26'0 0.0
2015-Jul-28 03:31N 51°54' E 004°26'0 0.0
2015-Jul-28 02:31N 51°54' E 004°26'0 0.0
2015-Jul-28 01:33N 51°54' E 004°26'0 0.0
2015-Jul-28 00:33N 51°54' E 004°26'0 0.0
2015-Jul-27 23:29N 51°54' E 004°26'0 0.0
2015-Jul-27 22:32N 51°54' E 004°26'0 0.0
2015-Jul-27 21:31N 51°54' E 004°26'0 0.0
2015-Jul-27 20:31N 51°54' E 004°26'0 0.0
2015-Jul-27 19:31N 51°54' E 004°26'0 0.0
2015-Jul-27 18:30N 51°54' E 004°26'0 0.0
2015-Jul-27 17:33N 51°54' E 004°26'0 0.0
2015-Jul-27 16:32N 51°54' E 004°26'0 0.0
2015-Jul-27 15:32N 51°54' E 004°26'0 0.0
2015-Jul-27 14:31N 51°54' E 004°26'0 0.0
2015-Jul-27 13:28N 51°54' E 004°26'0 0.0
2015-Jul-27 12:31N 51°54' E 004°26'0 0.0
2015-Jul-27 11:33N 51°54' E 004°26'0 0.0
2015-Jul-27 10:33N 51°54' E 004°26'0 0.0
2015-Jul-27 09:29N 51°54' E 004°26'0 0.0
2015-Jul-27 08:30N 51°54' E 004°26'0 0.0
2015-Jul-27 07:31N 51°54' E 004°26'0 0.0
2015-Jul-27 06:31N 51°54' E 004°26'0 0.0
2015-Jul-27 05:30N 51°54' E 004°26'0 0.0
2015-Jul-27 04:33N 51°54' E 004°26'0 0.0
2015-Jul-27 03:33N 51°54' E 004°26'0 0.0
2015-Jul-27 02:32N 51°54' E 004°26'0 0.0
2015-Jul-27 01:29N 51°54' E 004°26'0 0.0
2015-Jul-27 00:31N 51°54' E 004°26'0 0.0
2015-Jul-26 23:31N 51°54' E 004°26'0 0.0
2015-Jul-26 22:33N 51°54' E 004°26'0 0.0
2015-Jul-26 21:33N 51°54' E 004°26'0 0.0
2015-Jul-26 20:33N 51°54' E 004°26'0 0.0
2015-Jul-26 19:32N 51°54' E 004°26'0 0.0
2015-Jul-26 18:32N 51°54' E 004°26'0 0.0
2015-Jul-26 17:31N 51°54' E 004°26'0 0.0
2015-Jul-26 16:31N 51°54' E 004°26'0 0.0
2015-Jul-26 15:33N 51°54' E 004°26'0 0.0
2015-Jul-26 14:33N 51°54' E 004°26'0 0.0
2015-Jul-26 13:33N 51°54' E 004°26'0 0.0
2015-Jul-26 12:32N 51°54' E 004°26'0 0.1
2015-Jul-26 11:33N 51°54' E 004°26'1 0.9
2015-Jul-26 10:33N 51°53' E 004°27'1 1.1
2015-Jul-26 09:33N 51°54' E 004°26'9 9.0
2015-Jul-26 08:33N 51°56' E 004°12'1110.6
2015-Jul-26 07:34N 51°60' E 003°55'74 8.2
2015-Jul-25 22:33N 51°24' E 002°11'8 8.3
2015-Jul-25 21:33N 51°17' E 002°07'8 8.2
2015-Jul-25 20:33N 51°11' E 001°57'9 8.7
2015-Jul-25 19:33N 51°06' E 001°46'9 9.2
2015-Jul-25 18:33N 50°59' E 001°36'  
2015-Jul-21 08:20N 39°15' W 009°50'810.4
2015-Jul-21 07:33N 39°07' W 009°50'1010.3
2015-Jul-21 06:33N 38°57' W 009°51'1010.4
2015-Jul-21 05:33N 38°46' W 009°51'1010.3
2015-Jul-21 04:33N 38°36' W 009°49'10 9.8
2015-Jul-21 03:33N 38°26' W 009°46'10 9.8
2015-Jul-21 02:33N 38°17' W 009°43'10 9.5
2015-Jul-21 01:33N 38°08' W 009°40'11 9.3
2015-Jul-21 00:22N 37°57' W 009°38'8 9.2
2015-Jul-20 23:31N 37°49' W 009°35'9 9.4
2015-Jul-20 22:33N 37°41' W 009°32'9 9.5
2015-Jul-20 21:33N 37°31' W 009°29'10 9.7
2015-Jul-20 20:33N 37°22' W 009°26'12 9.5
2015-Jul-20 19:19N 37°10' W 009°24'  

Dump ship's entire track history